createdAt,value
2023-08-29T00:09:30.743Z,1.15
2023-08-29T00:20:06.005Z,1.73
2023-08-29T00:30:44.577Z,1.90
2023-08-29T00:41:20.323Z,1.40
2023-08-29T00:51:55.636Z,1.48
2023-08-29T01:02:30.946Z,1.58
2023-08-29T01:13:21.497Z,1.33
2023-08-29T01:24:24.683Z,1.88
2023-08-29T01:35:00.514Z,1.73
2023-08-29T01:45:37.497Z,1.55
2023-08-29T01:56:16.346Z,1.90
2023-08-29T02:06:51.496Z,2.17
2023-08-29T02:17:27.389Z,2.03
2023-08-29T02:28:02.381Z,2.63
2023-08-29T02:38:37.267Z,1.88
2023-08-29T02:49:12.095Z,2.00
2023-08-29T02:59:46.659Z,2.20
2023-08-29T03:10:21.543Z,2.17
2023-08-29T03:21:01.147Z,3.17
2023-08-29T03:31:37.671Z,2.92
2023-08-29T03:42:12.651Z,2.63
2023-08-29T03:52:47.911Z,2.95
2023-08-29T04:03:23.799Z,3.20
2023-08-29T04:14:00.417Z,3.40
2023-08-29T04:24:35.838Z,3.05
2023-08-29T04:35:11.911Z,2.70
2023-08-29T04:45:47.392Z,2.83
2023-08-29T04:56:22.351Z,3.92
2023-08-29T05:06:57.368Z,3.40
2023-08-29T05:17:32.425Z,3.38
2023-08-29T05:28:07.846Z,2.90
2023-08-29T05:38:43.959Z,3.17
2023-08-29T05:49:18.645Z,3.65
2023-08-29T05:59:55.115Z,2.97
2023-08-29T06:10:31.198Z,2.53
2023-08-29T06:21:06.856Z,2.42
2023-08-29T06:31:42.826Z,3.13
2023-08-29T06:42:18.175Z,3.00
2023-08-29T06:52:52.846Z,3.08
2023-08-29T07:03:28.081Z,3.58
2023-08-29T07:14:02.950Z,3.50
2023-08-29T07:24:39.323Z,3.00
2023-08-29T07:35:17.509Z,3.65
2023-08-29T07:45:54.439Z,2.92
2023-08-29T07:56:29.496Z,3.25
2023-08-29T08:07:04.406Z,3.10
2023-08-29T08:17:39.999Z,3.08
2023-08-29T08:28:14.921Z,3.38
2023-08-29T08:38:49.736Z,2.88
2023-08-29T08:49:27.375Z,2.65
2023-08-29T09:00:02.708Z,2.88
2023-08-29T09:10:40.892Z,2.22
2023-08-29T09:21:19.855Z,3.20
2023-08-29T09:42:34.216Z,2.13
2023-08-29T09:53:17.412Z,1.90
2023-08-29T10:03:52.964Z,1.40
2023-08-29T10:14:30.101Z,1.90
2023-08-29T10:25:05.332Z,1.33
2023-08-29T10:35:41.685Z,1.25
2023-08-29T10:46:17.653Z,1.50
2023-08-29T10:56:58.388Z,1.00
2023-08-29T11:07:34.106Z,1.20
2023-08-29T11:18:22.555Z,1.25
2023-08-29T11:28:57.778Z,1.50
2023-08-29T11:39:32.467Z,1.17
2023-08-29T11:50:08.304Z,1.40
2023-08-29T12:00:43.202Z,1.23
2023-08-29T12:11:18.168Z,1.67
2023-08-29T12:21:56.385Z,1.60
2023-08-29T12:32:32.144Z,1.40
2023-08-29T12:43:10.460Z,1.05
2023-08-29T12:53:45.905Z,1.10
2023-08-29T13:04:21.151Z,0.75
2023-08-29T13:14:56.110Z,0.70
2023-08-29T13:25:31.024Z,0.60
2023-08-29T13:36:07.067Z,0.60
2023-08-29T13:46:44.444Z,0.93
2023-08-29T13:57:21.026Z,0.80
2023-08-29T14:07:56.410Z,0.55
2023-08-29T14:18:32.222Z,0.80
2023-08-29T14:29:08.182Z,1.10
2023-08-29T14:39:43.014Z,0.98
2023-08-29T14:50:19.350Z,1.10
2023-08-29T15:00:54.125Z,0.80
2023-08-29T15:11:28.892Z,0.80
2023-08-29T15:22:03.812Z,1.20
2023-08-29T15:32:39.106Z,0.88
2023-08-29T15:43:15.703Z,0.80
2023-08-29T15:53:53.068Z,1.13
2023-08-29T16:04:28.150Z,1.38
2023-08-29T16:15:03.222Z,0.90
2023-08-29T16:25:38.376Z,0.88
2023-08-29T16:36:13.344Z,1.10
2023-08-29T16:46:48.550Z,0.90
2023-08-29T16:57:24.194Z,1.00
2023-08-29T17:07:59.079Z,1.08
2023-08-29T17:18:33.967Z,1.42
2023-08-29T17:29:08.642Z,1.52
2023-08-29T17:39:43.783Z,1.10
2023-08-29T17:50:18.869Z,1.48
2023-08-29T18:00:54.178Z,1.20
2023-08-29T18:11:29.095Z,1.73
2023-08-29T18:22:04.293Z,1.08
2023-08-29T18:32:39.184Z,1.17
2023-08-29T18:43:14.105Z,0.90
2023-08-29T18:53:48.981Z,0.98
2023-08-29T19:04:23.672Z,0.60
2023-08-29T19:15:07.778Z,0.77
2023-08-29T19:25:42.451Z,0.90
2023-08-29T19:36:18.928Z,0.90
2023-08-29T19:46:54.007Z,1.20
2023-08-29T19:57:28.552Z,1.55
2023-08-29T20:08:04.853Z,1.23
2023-08-29T20:18:40.700Z,1.05
2023-08-29T20:29:17.561Z,1.45
2023-08-29T20:39:52.724Z,1.20
2023-08-29T20:50:27.899Z,1.33
2023-08-29T21:01:03.807Z,1.23
2023-08-29T21:11:39.484Z,0.90
2023-08-29T21:22:14.769Z,1.13
2023-08-29T21:32:49.550Z,0.80
2023-08-29T21:43:25.207Z,1.23
2023-08-29T21:54:00.437Z,0.95
2023-08-29T22:04:34.958Z,1.10
2023-08-29T22:15:11.392Z,0.93
2023-08-29T22:25:46.269Z,1.00
2023-08-29T22:36:21.253Z,1.40
2023-08-29T22:46:56.225Z,1.40
2023-08-29T22:57:31.308Z,1.88
2023-08-29T23:08:06.987Z,1.80
2023-08-29T23:18:43.487Z,1.42
2023-08-29T23:29:20.282Z,1.92
2023-08-29T23:39:55.088Z,2.83
2023-08-29T23:50:30.088Z,3.72
